createdAt,value
2023-05-03T00:04:16.928Z,4.39
2023-05-03T00:09:19.863Z,4.41
2023-05-03T00:14:22.571Z,4.36
2023-05-03T00:19:31.700Z,4.25
2023-05-03T00:24:35.626Z,4.13
2023-05-03T00:29:38.841Z,4.11
2023-05-03T00:34:43.105Z,4.01
2023-05-03T00:39:45.892Z,3.93
2023-05-03T00:44:48.672Z,3.82
2023-05-03T00:49:52.871Z,3.78
2023-05-03T00:54:55.611Z,3.63
2023-05-03T00:59:58.944Z,3.60
2023-05-03T01:05:03.434Z,3.53
2023-05-03T01:10:18.798Z,3.33
2023-05-03T01:15:33.516Z,3.38
2023-05-03T01:20:38.582Z,3.23
2023-05-03T01:25:42.755Z,3.11
2023-05-03T01:30:47.123Z,3.15
2023-05-03T01:35:55.987Z,3.21
2023-05-03T01:41:03.473Z,3.10
2023-05-03T01:46:06.611Z,2.99
2023-05-03T01:51:09.546Z,2.96
2023-05-03T01:56:13.843Z,2.86
2023-05-03T02:01:16.637Z,2.80
2023-05-03T02:06:19.457Z,2.74
2023-05-03T02:11:23.585Z,2.79
2023-05-03T02:16:27.614Z,2.79
2023-05-03T02:21:31.511Z,2.76
2023-05-03T02:26:35.648Z,2.67
2023-05-03T02:31:39.321Z,2.65
2023-05-03T02:36:42.956Z,2.60
2023-05-03T02:41:47.276Z,2.47
2023-05-03T02:46:50.444Z,2.42
2023-05-03T02:51:53.947Z,2.40
2023-05-03T02:56:58.106Z,2.31
2023-05-03T03:02:00.943Z,2.29
2023-05-03T03:07:03.911Z,2.33
2023-05-03T03:12:08.312Z,2.24
2023-05-03T03:17:11.794Z,2.31
2023-05-03T03:22:15.107Z,2.25
2023-05-03T03:27:19.308Z,2.21
2023-05-03T03:32:22.749Z,2.15
2023-05-03T03:37:25.787Z,2.05
2023-05-03T03:42:31.625Z,2.09
2023-05-03T03:47:34.863Z,2.10
2023-05-03T03:52:37.925Z,2.06
2023-05-03T03:57:42.415Z,2.03
2023-05-03T04:02:46.987Z,2.02
2023-05-03T04:07:53.663Z,2.07
2023-05-03T04:12:58.495Z,2.06
2023-05-03T04:18:01.407Z,2.05
2023-05-03T04:23:04.543Z,2.01
2023-05-03T04:28:09.998Z,2.17
2023-05-03T04:33:17.399Z,2.16
2023-05-03T04:38:20.556Z,2.21
2023-05-03T04:43:25.054Z,2.26
2023-05-03T04:48:27.951Z,2.41
2023-05-03T04:53:32.020Z,2.51
2023-05-03T04:58:44.918Z,2.64
2023-05-03T05:03:50.348Z,2.71
2023-05-03T05:08:57.862Z,2.77
2023-05-03T05:14:02.095Z,2.76
2023-05-03T05:19:05.313Z,2.86
2023-05-03T05:24:08.467Z,3.03
2023-05-03T05:29:13.675Z,3.28
2023-05-03T05:34:16.519Z,3.56
2023-05-03T05:39:21.121Z,3.93
2023-05-03T05:44:26.022Z,4.34
2023-05-03T05:49:29.985Z,4.81
2023-05-03T05:54:33.940Z,5.29
2023-05-03T05:59:38.630Z,5.71
2023-05-03T06:04:41.886Z,6.08
2023-05-03T06:09:45.055Z,6.44
2023-05-03T06:15:01.947Z,6.66
2023-05-03T06:20:14.259Z,7.06
2023-05-03T06:25:19.566Z,7.53
2023-05-03T06:30:29.096Z,7.81
2023-05-03T06:35:37.727Z,8.19
2023-05-03T06:40:42.453Z,8.08
2023-05-03T06:45:48.778Z,8.57
2023-05-03T06:50:51.655Z,8.48
2023-05-03T06:55:54.392Z,8.71
2023-05-03T07:00:58.627Z,8.85
2023-05-03T07:06:04.124Z,9.35
2023-05-03T07:11:07.647Z,9.28
2023-05-03T07:16:14.469Z,9.66
2023-05-03T07:21:18.083Z,9.78
2023-05-03T07:26:21.786Z,9.73
2023-05-03T07:31:26.030Z,10.22
2023-05-03T07:36:29.079Z,10.37
2023-05-03T07:41:33.862Z,10.10
2023-05-03T07:46:38.117Z,10.14
2023-05-03T07:51:41.115Z,10.58
2023-05-03T07:56:43.911Z,10.50
2023-05-03T08:01:48.277Z,10.53
2023-05-03T08:06:51.183Z,10.87
2023-05-03T08:11:56.140Z,11.34
2023-05-03T08:17:02.048Z,11.60
2023-05-03T08:22:05.603Z,11.55
2023-05-03T08:27:09.587Z,11.97
2023-05-03T08:32:16.135Z,12.09
2023-05-03T08:37:18.841Z,11.99
2023-05-03T08:42:25.163Z,11.89
2023-05-03T08:47:36.222Z,11.75
2023-05-03T08:52:40.889Z,12.34
2023-05-03T08:57:44.938Z,12.18
2023-05-03T09:02:52.636Z,12.45
2023-05-03T09:21:23.166Z,12.98
2023-05-03T09:26:34.565Z,13.73
2023-05-03T09:31:59.329Z,13.26
2023-05-03T09:37:04.352Z,12.99
2023-05-03T09:42:13.135Z,13.30
2023-05-03T09:47:17.244Z,13.79
2023-05-03T09:52:23.288Z,13.28
2023-05-03T09:57:27.201Z,13.98
2023-05-03T10:02:33.068Z,13.51
2023-05-03T10:07:41.237Z,13.75
2023-05-03T10:12:46.503Z,14.43
2023-05-03T10:17:54.627Z,14.73
2023-05-03T10:23:12.605Z,14.50
2023-05-03T10:28:15.920Z,14.54
2023-05-03T10:33:33.284Z,14.91
2023-05-03T10:38:39.404Z,14.75
2023-05-03T10:43:44.266Z,15.59
2023-05-03T10:49:16.288Z,15.41
2023-05-03T10:54:20.661Z,15.55
2023-05-03T10:59:26.129Z,15.35
2023-05-03T11:04:40.568Z,16.44
2023-05-03T11:09:47.588Z,16.31
2023-05-03T11:14:51.696Z,16.83
2023-05-03T11:19:54.946Z,16.94
2023-05-03T11:24:59.255Z,17.18
2023-05-03T11:30:02.011Z,17.16
2023-05-03T11:35:07.250Z,17.28
2023-05-03T11:40:18.281Z,17.87
2023-05-03T11:45:25.109Z,18.32
2023-05-03T11:50:44.258Z,18.26
2023-05-03T11:55:49.909Z,18.84
2023-05-03T12:00:55.350Z,18.77
2023-05-03T12:05:58.765Z,18.68
2023-05-03T12:11:06.871Z,19.65
2023-05-03T12:16:14.943Z,20.94
2023-05-03T12:26:29.377Z,21.98
2023-05-03T12:31:35.000Z,23.79
2023-05-03T12:36:38.992Z,22.58
2023-05-03T12:46:54.854Z,24.62
2023-05-03T12:57:15.323Z,25.58
2023-05-03T13:03:20.166Z,24.72
2023-05-03T13:07:43.923Z,25.14
2023-05-03T13:12:48.846Z,27.32
2023-05-03T13:17:52.633Z,26.29
2023-05-03T13:22:58.733Z,27.49
2023-05-03T13:28:03.917Z,28.98
2023-05-03T13:33:07.437Z,27.83
2023-05-03T13:38:10.441Z,27.74
2023-05-03T13:43:15.159Z,28.52
2023-05-03T13:48:19.288Z,29.46
2023-05-03T13:53:22.927Z,26.21
2023-05-03T13:58:27.023Z,30.44
2023-05-03T14:03:30.258Z,29.12
2023-05-03T14:08:33.120Z,29.85
2023-05-03T14:13:53.866Z,32.08
2023-05-03T14:18:58.844Z,29.08
2023-05-03T14:24:03.428Z,28.87
2023-05-03T14:29:08.546Z,26.83
2023-05-03T14:34:11.317Z,31.41
2023-05-03T14:39:16.284Z,30.51
2023-05-03T14:44:20.605Z,32.75
2023-05-03T14:49:23.484Z,31.95
2023-05-03T14:54:28.901Z,32.72
2023-05-03T14:59:33.912Z,32.56
2023-05-03T15:04:39.623Z,35.43
2023-05-03T15:09:42.972Z,33.24
2023-05-03T15:14:48.962Z,33.33
2023-05-03T15:19:52.672Z,36.24
2023-05-03T15:24:55.945Z,35.14
2023-05-03T15:30:00.514Z,34.38
2023-05-03T15:35:05.773Z,37.49
2023-05-03T15:40:11.753Z,38.15
2023-05-03T15:45:15.917Z,36.29
2023-05-03T15:50:19.890Z,36.44
2023-05-03T15:55:23.347Z,38.43
2023-05-03T16:00:27.791Z,35.98
2023-05-03T16:05:31.723Z,37.40
2023-05-03T16:10:34.777Z,37.76
2023-05-03T16:15:39.648Z,36.66
2023-05-03T16:20:42.425Z,35.73
2023-05-03T16:25:45.151Z,37.02
2023-05-03T16:30:49.769Z,34.93
2023-05-03T16:35:52.613Z,37.41
2023-05-03T16:40:55.468Z,37.57
2023-05-03T16:46:01.447Z,34.60
2023-05-03T16:51:04.488Z,34.61
2023-05-03T16:56:07.471Z,34.74
2023-05-03T17:01:11.720Z,33.49
2023-05-03T17:06:15.702Z,35.30
2023-05-03T17:11:18.499Z,35.15
2023-05-03T17:16:23.252Z,32.30
2023-05-03T17:21:27.454Z,29.23
2023-05-03T17:26:30.336Z,26.81
2023-05-03T17:31:34.529Z,24.44
2023-05-03T17:36:37.793Z,24.12
2023-05-03T17:41:42.733Z,22.16
2023-05-03T17:46:48.849Z,20.81
2023-05-03T17:51:52.079Z,20.34
2023-05-03T17:56:57.733Z,19.33
2023-05-03T18:02:05.587Z,18.61
2023-05-03T18:07:08.557Z,18.27
2023-05-03T18:12:11.438Z,18.00
2023-05-03T18:17:15.728Z,17.59
2023-05-03T18:22:22.242Z,17.36
2023-05-03T18:27:26.284Z,17.12
2023-05-03T18:32:30.367Z,16.69
2023-05-03T18:37:33.131Z,16.33
2023-05-03T18:42:35.936Z,16.05
2023-05-03T18:47:40.844Z,15.73
2023-05-03T18:52:44.948Z,15.49
2023-05-03T18:57:48.068Z,15.18
2023-05-03T19:02:52.489Z,14.88
2023-05-03T19:07:55.485Z,14.73
2023-05-03T19:12:58.492Z,14.46
2023-05-03T19:18:03.591Z,14.20
2023-05-03T19:23:06.709Z,13.88
2023-05-03T19:28:10.582Z,13.40
2023-05-03T19:33:14.761Z,13.04
2023-05-03T19:38:17.469Z,12.76
2023-05-03T19:43:20.399Z,12.58
2023-05-03T19:48:24.769Z,12.21
2023-05-03T19:53:28.749Z,11.96
2023-05-03T19:58:32.059Z,11.79
2023-05-03T20:03:36.430Z,11.67
2023-05-03T20:08:39.281Z,11.53
2023-05-03T20:13:42.652Z,11.48
2023-05-03T20:18:47.749Z,11.36
2023-05-03T20:23:51.253Z,11.17
2023-05-03T20:28:54.034Z,11.03
2023-05-03T20:33:58.390Z,10.89
2023-05-03T20:39:01.144Z,10.81
2023-05-03T20:44:04.559Z,10.80
2023-05-03T20:49:10.116Z,10.72
2023-05-03T20:54:13.407Z,10.63
2023-05-03T20:59:17.039Z,10.51
2023-05-03T21:04:21.244Z,10.40
2023-05-03T21:09:24.388Z,10.29
2023-05-03T21:14:28.628Z,10.16
2023-05-03T21:19:35.078Z,9.97
2023-05-03T21:24:38.895Z,9.86
2023-05-03T21:29:41.613Z,9.74
2023-05-03T21:34:46.148Z,9.64
2023-05-03T21:40:00.504Z,9.55
2023-05-03T21:45:05.402Z,9.47
2023-05-03T21:50:10.533Z,9.38
2023-05-03T21:55:13.347Z,9.26
2023-05-03T22:00:20.848Z,9.12
2023-05-03T22:05:26.692Z,9.03
2023-05-03T22:10:29.390Z,8.90
2023-05-03T22:15:32.188Z,8.75
2023-05-03T22:20:36.281Z,8.66
2023-05-03T22:25:39.041Z,8.63
2023-05-03T22:30:41.835Z,8.40
2023-05-03T22:35:45.982Z,8.42
2023-05-03T22:40:48.760Z,8.37
2023-05-03T22:45:51.473Z,8.28
2023-05-03T22:50:55.661Z,8.25
2023-05-03T22:55:58.907Z,8.13
2023-05-03T23:01:01.739Z,8.09
2023-05-03T23:06:06.340Z,7.99
2023-05-03T23:11:09.383Z,7.92
2023-05-03T23:16:12.376Z,7.86
2023-05-03T23:21:16.498Z,7.77
2023-05-03T23:26:19.940Z,7.71
2023-05-03T23:31:23.064Z,7.60
2023-05-03T23:36:27.910Z,7.49
2023-05-03T23:41:30.819Z,7.43
2023-05-03T23:46:34.524Z,7.36
2023-05-03T23:51:38.743Z,7.33
2023-05-03T23:56:41.738Z,7.28
